createdAt,value
2019-03-08T00:00:05.347Z,6.60
2019-03-08T00:02:33.820Z,11.90
2019-03-08T00:05:02.259Z,6.80
2019-03-08T00:07:30.655Z,9.57
2019-03-08T00:09:59.064Z,10.13
2019-03-08T00:12:27.482Z,5.87
2019-03-08T00:14:55.906Z,12.63
2019-03-08T00:17:24.316Z,8.83
2019-03-08T00:19:52.730Z,11.93
2019-03-08T00:22:24.126Z,5.67
2019-03-08T00:24:52.518Z,6.63
2019-03-08T00:27:20.930Z,4.53
2019-03-08T00:29:49.361Z,7.17
2019-03-08T00:32:17.752Z,8.03
2019-03-08T00:34:46.167Z,17.13
2019-03-08T00:37:14.659Z,11.23
2019-03-08T00:39:43.081Z,7.13
2019-03-08T00:42:11.624Z,10.13
2019-03-08T00:44:40.033Z,9.60
2019-03-08T00:47:08.523Z,7.47
2019-03-08T00:49:37.001Z,11.80
2019-03-08T00:52:05.482Z,17.60
2019-03-08T00:54:33.879Z,14.27
2019-03-08T00:57:02.278Z,11.43
2019-03-08T00:59:30.662Z,8.37
2019-03-08T01:01:59.156Z,14.70
2019-03-08T01:04:27.707Z,10.43
2019-03-08T01:06:56.187Z,7.27
2019-03-08T01:09:24.580Z,7.67
2019-03-08T01:11:53.012Z,7.13
2019-03-08T01:14:21.448Z,16.33
2019-03-08T01:16:49.916Z,10.90
2019-03-08T01:19:18.409Z,9.00
2019-03-08T01:21:46.813Z,5.77
2019-03-08T01:24:15.255Z,15.47
2019-03-08T01:26:43.647Z,10.27
2019-03-08T01:29:12.130Z,11.67
2019-03-08T01:31:40.539Z,5.20
2019-03-08T01:34:08.933Z,18.67
2019-03-08T01:36:37.439Z,29.23
2019-03-08T01:39:07.675Z,8.03
2019-03-08T01:41:36.127Z,7.40
2019-03-08T01:44:04.622Z,10.93
2019-03-08T01:46:33.068Z,7.93
2019-03-08T01:49:01.504Z,11.17
2019-03-08T01:51:29.927Z,4.93
2019-03-08T01:53:58.363Z,10.90
2019-03-08T01:56:26.826Z,9.80
2019-03-08T01:58:55.253Z,12.13
2019-03-08T02:01:23.658Z,13.07
2019-03-08T02:03:52.147Z,12.50
2019-03-08T02:06:20.695Z,13.13
2019-03-08T02:08:49.084Z,15.80
2019-03-08T02:11:17.588Z,13.70
2019-03-08T02:13:46.008Z,7.00
2019-03-08T02:16:14.442Z,10.63
2019-03-08T02:18:42.849Z,10.90
2019-03-08T02:21:11.270Z,13.60
2019-03-08T02:23:39.687Z,9.20
2019-03-08T02:26:08.159Z,8.33
2019-03-08T02:28:36.566Z,7.37
2019-03-08T02:31:08.206Z,9.73
2019-03-08T02:33:36.627Z,9.97
2019-03-08T02:36:05.093Z,12.10
2019-03-08T02:38:33.507Z,9.13
2019-03-08T02:41:00.901Z,12.63
2019-03-08T02:43:29.335Z,9.63
2019-03-08T02:45:57.833Z,10.60
2019-03-08T02:48:26.234Z,10.10
2019-03-08T02:50:54.676Z,8.00
2019-03-08T02:53:23.072Z,9.27
2019-03-08T02:55:51.488Z,8.87
2019-03-08T02:58:19.894Z,6.23
2019-03-08T03:00:48.300Z,10.53
2019-03-08T03:03:17.546Z,8.93
2019-03-08T03:05:46.023Z,14.43
2019-03-08T03:08:14.447Z,9.23
2019-03-08T03:10:42.916Z,7.50
2019-03-08T03:13:11.410Z,8.73
2019-03-08T03:15:39.883Z,10.70
2019-03-08T03:18:08.272Z,7.63
2019-03-08T03:20:37.466Z,10.20
2019-03-08T03:23:05.871Z,5.80
2019-03-08T03:25:34.288Z,4.50
2019-03-08T03:28:02.788Z,4.90
2019-03-08T03:30:31.254Z,6.43
2019-03-08T03:32:59.731Z,4.80
2019-03-08T03:35:28.401Z,7.20
2019-03-08T03:37:56.794Z,6.77
2019-03-08T03:40:25.196Z,5.03
2019-03-08T03:42:53.678Z,3.87
2019-03-08T03:45:22.323Z,4.40
2019-03-08T03:47:50.801Z,7.10
2019-03-08T03:50:19.671Z,6.20
2019-03-08T03:52:48.081Z,3.80
2019-03-08T03:55:17.726Z,8.10
2019-03-08T03:57:46.260Z,5.33
2019-03-08T04:00:22.602Z,7.30
2019-03-08T04:02:51.357Z,9.07
2019-03-08T04:05:19.993Z,7.73
2019-03-08T04:07:48.448Z,8.30
2019-03-08T04:10:17.919Z,5.23
2019-03-08T04:12:46.387Z,4.67
2019-03-08T04:15:19.692Z,5.30
2019-03-08T04:17:48.392Z,5.20
2019-03-08T04:20:18.163Z,5.17
2019-03-08T04:22:46.714Z,5.63
2019-03-08T04:25:15.267Z,3.67
2019-03-08T04:27:43.726Z,8.63
2019-03-08T04:30:40.063Z,4.57
2019-03-08T04:33:08.472Z,4.53
2019-03-08T04:35:36.876Z,9.10
2019-03-08T04:38:05.284Z,8.67
2019-03-08T04:40:33.703Z,9.50
2019-03-08T04:43:02.138Z,5.53
2019-03-08T04:45:30.529Z,5.07
2019-03-08T04:47:58.939Z,5.83
2019-03-08T04:50:27.330Z,5.60
2019-03-08T04:52:55.750Z,7.40
2019-03-08T04:55:24.146Z,9.90
2019-03-08T04:57:52.564Z,7.40
2019-03-08T05:00:22.326Z,10.03
2019-03-08T05:02:50.744Z,7.93
2019-03-08T05:05:19.183Z,11.40
2019-03-08T05:07:47.737Z,9.63
2019-03-08T05:10:17.709Z,7.77
2019-03-08T05:12:47.694Z,6.20
2019-03-08T05:15:17.252Z,5.00
2019-03-08T05:17:45.635Z,11.03
2019-03-08T05:20:14.128Z,12.13
2019-03-08T05:22:42.585Z,6.00
2019-03-08T05:25:13.407Z,4.37
2019-03-08T05:27:41.890Z,8.70
2019-03-08T05:30:15.511Z,8.50
2019-03-08T05:32:45.403Z,8.70
2019-03-08T05:35:14.731Z,6.80
2019-03-08T05:37:43.236Z,4.33
2019-03-08T05:40:13.861Z,5.27
2019-03-08T05:42:42.323Z,10.80
2019-03-08T05:45:12.388Z,12.40
2019-03-08T05:47:40.781Z,5.63
2019-03-08T05:50:10.519Z,6.40
2019-03-08T05:52:39.004Z,8.00
2019-03-08T05:55:09.610Z,10.77
2019-03-08T05:57:38.006Z,8.73
2019-03-08T06:00:16.244Z,5.80
2019-03-08T06:02:44.682Z,19.87
2019-03-08T06:05:13.166Z,9.53
2019-03-08T06:07:41.552Z,9.50
2019-03-08T06:10:33.579Z,13.20
2019-03-08T06:13:03.741Z,15.07
2019-03-08T06:15:32.229Z,8.83
2019-03-08T06:18:00.700Z,16.93
2019-03-08T06:20:29.116Z,19.23
2019-03-08T06:22:57.656Z,13.50
2019-03-08T06:25:26.335Z,13.80
2019-03-08T06:27:54.825Z,12.73
2019-03-08T06:30:23.368Z,14.30
2019-03-08T06:32:52.056Z,19.67
2019-03-08T06:35:20.509Z,13.83
2019-03-08T06:37:48.957Z,11.73
2019-03-08T06:40:17.502Z,13.47
2019-03-08T06:42:45.908Z,10.90
2019-03-08T06:45:18.181Z,16.97
2019-03-08T06:47:51.186Z,16.77
2019-03-08T06:50:19.691Z,16.23
2019-03-08T06:52:48.093Z,10.60
2019-03-08T06:55:17.580Z,16.40
2019-03-08T06:57:46.044Z,16.33
2019-03-08T07:00:35.286Z,18.77
2019-03-08T07:03:05.248Z,18.90
2019-03-08T07:05:33.668Z,17.30
2019-03-08T07:08:05.857Z,20.27
2019-03-08T07:10:34.266Z,22.27
2019-03-08T07:13:03.843Z,16.47
2019-03-08T07:15:32.528Z,20.03
2019-03-08T07:18:00.988Z,18.30
2019-03-08T07:20:33.855Z,16.17
2019-03-08T07:23:11.125Z,20.70
2019-03-08T07:25:41.386Z,20.47
2019-03-08T07:28:20.024Z,20.63
2019-03-08T07:30:57.656Z,20.23
2019-03-08T07:33:37.001Z,20.10
2019-03-08T07:36:11.874Z,16.63
2019-03-08T07:38:54.171Z,14.87
2019-03-08T07:41:28.861Z,28.87
2019-03-08T07:44:02.488Z,14.13
2019-03-08T07:46:48.861Z,16.53
2019-03-08T07:49:18.938Z,10.07
2019-03-08T07:51:57.545Z,21.90
2019-03-08T07:54:27.580Z,27.53
2019-03-08T07:57:00.164Z,17.27
2019-03-08T07:59:39.175Z,21.13
2019-03-08T08:02:09.581Z,23.63
2019-03-08T08:04:48.626Z,17.93
2019-03-08T08:07:21.682Z,18.10
2019-03-08T08:10:05.032Z,20.10
2019-03-08T08:12:50.477Z,20.47
2019-03-08T08:15:20.537Z,25.80
2019-03-08T08:17:59.437Z,24.20
2019-03-08T08:20:49.040Z,20.63
2019-03-08T08:23:19.160Z,22.50
2019-03-08T08:26:04.357Z,21.87
2019-03-08T08:28:34.422Z,21.90
2019-03-08T08:31:10.546Z,23.67
2019-03-08T08:33:57.131Z,21.47
2019-03-08T08:36:29.813Z,24.30
2019-03-08T08:39:12.099Z,25.03
2019-03-08T08:41:42.178Z,23.57
2019-03-08T08:44:12.223Z,23.30
2019-03-08T08:46:45.104Z,26.13
2019-03-08T08:49:17.867Z,18.00
2019-03-08T08:51:47.907Z,24.33
2019-03-08T08:54:24.044Z,29.80
2019-03-08T08:56:56.608Z,20.50
2019-03-08T08:59:26.684Z,22.30
2019-03-08T09:01:56.751Z,31.20
2019-03-08T09:04:26.835Z,25.33
2019-03-08T09:06:59.647Z,18.30
2019-03-08T09:09:41.804Z,16.57
2019-03-08T09:12:27.263Z,21.93
2019-03-08T09:15:13.783Z,34.07
2019-03-08T09:17:52.861Z,19.57
2019-03-08T09:20:28.688Z,34.57
2019-03-08T09:22:58.765Z,26.77
2019-03-08T09:25:40.788Z,21.20
2019-03-08T09:28:25.815Z,18.30
2019-03-08T09:31:01.976Z,25.50
2019-03-08T09:33:37.849Z,19.30
2019-03-08T09:36:10.671Z,19.70
2019-03-08T09:38:43.843Z,35.67
2019-03-08T09:41:20.033Z,23.37
2019-03-08T09:43:53.398Z,20.87
2019-03-08T09:46:23.562Z,12.87
2019-03-08T09:48:56.358Z,20.40
2019-03-08T09:51:27.103Z,20.90
2019-03-08T09:53:57.138Z,15.00
2019-03-08T09:56:43.426Z,15.30
2019-03-08T09:59:13.541Z,12.43
2019-03-08T10:01:59.861Z,15.83
2019-03-08T10:04:29.905Z,14.60
2019-03-08T10:06:59.950Z,17.23
2019-03-08T10:09:30.020Z,17.17
2019-03-08T10:12:00.243Z,14.67
2019-03-08T10:14:30.359Z,22.93
2019-03-08T10:17:00.577Z,20.73
2019-03-08T10:19:42.832Z,23.27
2019-03-08T10:22:12.873Z,16.10
2019-03-08T10:24:42.916Z,17.80
2019-03-08T10:27:16.143Z,12.10
2019-03-08T10:29:46.203Z,22.63
2019-03-08T10:32:16.260Z,16.57
2019-03-08T10:34:52.279Z,23.67
2019-03-08T10:37:22.359Z,18.03
2019-03-08T10:40:01.507Z,14.43
2019-03-08T10:42:37.346Z,16.17
2019-03-08T10:45:09.453Z,16.60
2019-03-08T10:47:39.534Z,16.53
2019-03-08T10:50:15.964Z,15.87
2019-03-08T10:52:51.981Z,19.57
2019-03-08T10:55:28.059Z,18.17
2019-03-08T10:57:58.100Z,13.87
2019-03-08T11:00:31.240Z,11.90
2019-03-08T11:03:07.302Z,13.50
2019-03-08T11:05:40.076Z,15.00
2019-03-08T11:08:29.565Z,15.50
2019-03-08T11:11:06.645Z,16.93
2019-03-08T11:13:53.076Z,14.40
2019-03-08T11:16:29.536Z,14.30
2019-03-08T11:19:15.747Z,16.47
2019-03-08T11:22:00.588Z,16.83
2019-03-08T11:24:46.529Z,9.23
2019-03-08T11:27:33.195Z,8.40
2019-03-08T11:30:21.814Z,10.23
2019-03-08T11:32:54.860Z,17.80
2019-03-08T11:35:25.016Z,16.63
2019-03-08T11:38:07.254Z,14.87
2019-03-08T11:40:39.986Z,12.00
2019-03-08T11:43:10.130Z,13.23
2019-03-08T11:45:51.745Z,7.87
2019-03-08T11:48:38.304Z,14.50
2019-03-08T11:51:26.477Z,9.33
2019-03-08T11:53:56.693Z,15.83
2019-03-08T11:56:35.814Z,13.87
2019-03-08T11:59:11.492Z,12.60
2019-03-08T12:01:59.129Z,20.23
2019-03-08T12:04:47.606Z,10.33
2019-03-08T12:07:17.687Z,12.63
2019-03-08T12:10:00.147Z,9.40
2019-03-08T12:12:30.426Z,10.43
2019-03-08T12:15:03.295Z,14.07
2019-03-08T12:17:45.581Z,14.80
2019-03-08T12:20:15.744Z,15.03
2019-03-08T12:23:02.082Z,13.00
2019-03-08T12:25:32.168Z,8.90
2019-03-08T12:28:18.190Z,13.83
2019-03-08T12:30:48.279Z,17.10
2019-03-08T12:33:29.965Z,13.33
2019-03-08T12:36:14.967Z,15.10
2019-03-08T12:38:45.064Z,12.57
2019-03-08T12:41:17.517Z,10.53
2019-03-08T12:44:03.523Z,13.03
2019-03-08T12:46:37.016Z,12.10
2019-03-08T12:49:07.075Z,19.20
2019-03-08T12:51:37.167Z,11.10
2019-03-08T12:54:07.349Z,8.13
2019-03-08T12:56:37.436Z,9.43
2019-03-08T12:59:07.753Z,13.97
2019-03-08T13:01:40.324Z,11.30
2019-03-08T13:04:13.369Z,13.10
2019-03-08T13:06:49.235Z,14.37
2019-03-08T13:09:19.575Z,9.60
2019-03-08T13:11:48.020Z,16.37
2019-03-08T13:14:16.498Z,15.80
2019-03-08T13:16:44.927Z,11.03
2019-03-08T13:19:13.349Z,13.47
2019-03-08T13:21:41.851Z,13.53
2019-03-08T13:24:10.513Z,18.43
2019-03-08T13:26:39.003Z,8.63
2019-03-08T13:29:07.517Z,9.87
2019-03-08T13:31:35.915Z,11.97
2019-03-08T13:34:04.381Z,13.33
2019-03-08T13:36:33.054Z,13.10
2019-03-08T13:39:01.659Z,12.80
2019-03-08T13:41:30.075Z,12.63
2019-03-08T13:44:00.604Z,10.47
2019-03-08T13:46:28.949Z,12.83
2019-03-08T13:48:57.447Z,9.23
2019-03-08T13:51:26.140Z,12.40
2019-03-08T13:53:54.875Z,10.00
2019-03-08T13:56:23.275Z,11.33
2019-03-08T13:58:51.698Z,12.87
2019-03-08T14:01:20.102Z,8.80
2019-03-08T14:03:48.537Z,7.07
2019-03-08T14:06:16.932Z,9.43
2019-03-08T14:08:45.643Z,13.23
2019-03-08T14:11:14.212Z,16.17
2019-03-08T14:13:42.689Z,11.13
2019-03-08T14:16:11.117Z,19.20
2019-03-08T14:18:39.531Z,11.30
2019-03-08T14:21:08.030Z,7.97
2019-03-08T14:23:36.841Z,10.20
2019-03-08T14:26:05.927Z,15.13
2019-03-08T14:28:34.719Z,9.67
2019-03-08T14:31:04.855Z,9.60
2019-03-08T14:33:34.386Z,14.70
2019-03-08T14:36:06.019Z,13.10
2019-03-08T14:38:37.086Z,20.50
2019-03-08T14:41:09.874Z,9.87
2019-03-08T14:43:39.950Z,6.43
2019-03-08T14:46:13.056Z,9.90
2019-03-08T14:48:42.555Z,19.40
2019-03-08T14:51:13.061Z,9.63
2019-03-08T14:53:41.615Z,9.53
2019-03-08T14:56:10.027Z,12.13
2019-03-08T14:58:40.269Z,13.57
2019-03-08T15:01:08.622Z,8.13
2019-03-08T15:03:43.318Z,6.30
2019-03-08T15:06:07.321Z,9.37
2019-03-08T15:08:35.773Z,5.60
2019-03-08T15:11:04.300Z,5.47
2019-03-08T15:13:32.711Z,7.20
2019-03-08T15:16:02.110Z,4.73
2019-03-08T15:18:31.442Z,10.60
2019-03-08T15:21:00.811Z,8.00
2019-03-08T15:23:29.324Z,11.53
2019-03-08T15:25:57.757Z,5.77
2019-03-08T15:28:26.587Z,9.33
2019-03-08T15:30:55.132Z,7.80
2019-03-08T15:33:23.590Z,6.50
2019-03-08T15:35:52.027Z,7.87
2019-03-08T15:38:20.500Z,5.80
2019-03-08T15:40:48.976Z,9.20
2019-03-08T15:43:17.437Z,7.10
2019-03-08T15:45:46.251Z,4.07
2019-03-08T15:48:15.937Z,6.87
2019-03-08T15:50:46.752Z,8.20
2019-03-08T15:53:14.775Z,6.07
2019-03-08T15:55:52.526Z,3.00
2019-03-08T15:58:13.648Z,7.13
2019-03-08T16:00:42.159Z,4.50
2019-03-08T16:03:10.672Z,7.97
2019-03-08T16:05:39.166Z,7.30
2019-03-08T16:08:07.565Z,8.73
2019-03-08T16:10:36.126Z,4.87
2019-03-08T16:13:04.662Z,5.60
2019-03-08T16:15:33.148Z,6.60
2019-03-08T16:18:01.560Z,6.37
2019-03-08T16:20:29.963Z,9.73
2019-03-08T16:22:58.499Z,9.03
2019-03-08T16:25:27.010Z,12.23
2019-03-08T16:27:55.530Z,3.80
2019-03-08T16:30:39.858Z,5.00
2019-03-08T16:33:17.706Z,13.30
2019-03-08T16:36:04.298Z,9.03
2019-03-08T16:38:34.233Z,13.20
2019-03-08T16:41:04.297Z,4.47
2019-03-08T16:43:34.112Z,6.00
2019-03-08T16:46:06.936Z,6.80
2019-03-08T16:48:40.307Z,9.80
2019-03-08T16:51:20.459Z,8.10
2019-03-08T16:54:03.661Z,7.07
2019-03-08T16:56:45.416Z,12.30
2019-03-08T16:59:33.601Z,6.90
2019-03-08T17:02:15.424Z,4.00
2019-03-08T17:04:54.118Z,17.10
2019-03-08T17:07:36.436Z,8.03
2019-03-08T17:10:07.461Z,5.93
2019-03-08T17:12:52.442Z,12.17
2019-03-08T17:15:38.719Z,10.23
2019-03-08T17:18:25.118Z,4.37
2019-03-08T17:20:57.941Z,9.13
2019-03-08T17:23:28.099Z,11.13
2019-03-08T17:26:16.444Z,9.90
2019-03-08T17:29:02.944Z,5.47
2019-03-08T17:31:33.000Z,8.67
2019-03-08T17:34:19.135Z,5.67
2019-03-08T17:37:01.595Z,5.53
2019-03-08T17:39:43.609Z,14.63
2019-03-08T17:42:30.189Z,5.53
2019-03-08T17:45:09.214Z,9.93
2019-03-08T17:47:39.292Z,6.30
2019-03-08T17:50:12.516Z,12.07
2019-03-08T17:52:54.565Z,7.90
2019-03-08T17:55:30.685Z,4.97
2019-03-08T17:58:13.118Z,4.30
2019-03-08T18:00:43.245Z,9.83
2019-03-08T18:03:15.805Z,8.33
2019-03-08T18:05:48.588Z,10.27
2019-03-08T18:08:36.736Z,6.77
2019-03-08T18:11:22.831Z,5.33
2019-03-08T18:13:58.859Z,7.73
2019-03-08T18:16:32.090Z,7.63
2019-03-08T18:19:02.177Z,6.70
2019-03-08T18:21:37.757Z,8.20
2019-03-08T18:24:08.076Z,5.43
2019-03-08T18:26:38.148Z,6.90
2019-03-08T18:29:11.205Z,9.07
2019-03-08T18:31:53.389Z,14.30
2019-03-08T18:34:29.341Z,11.87
2019-03-08T18:37:02.096Z,9.03
2019-03-08T18:39:35.125Z,7.40
2019-03-08T18:42:05.216Z,7.60
2019-03-08T18:44:52.736Z,7.10
2019-03-08T18:47:28.286Z,9.17
2019-03-08T18:50:04.108Z,7.00
2019-03-08T18:52:34.167Z,7.67
2019-03-08T18:55:10.033Z,8.83
2019-03-08T18:57:56.264Z,7.20
2019-03-08T19:00:28.794Z,7.57
2019-03-08T19:03:07.396Z,6.70
2019-03-08T19:05:43.294Z,5.97
2019-03-08T19:08:19.103Z,7.37
2019-03-08T19:11:01.328Z,7.53
2019-03-08T19:13:31.367Z,10.50
2019-03-08T19:16:03.916Z,9.70
2019-03-08T19:18:36.970Z,9.03
2019-03-08T19:21:18.927Z,11.33
2019-03-08T19:23:51.834Z,13.57
2019-03-08T19:26:24.846Z,9.17
2019-03-08T19:28:54.971Z,11.13
2019-03-08T19:31:40.128Z,9.13
2019-03-08T19:34:10.176Z,10.57
2019-03-08T19:36:52.452Z,10.30
2019-03-08T19:39:38.593Z,10.40
2019-03-08T19:42:14.847Z,10.27
2019-03-08T19:44:44.950Z,9.07
2019-03-08T19:47:31.457Z,11.57
2019-03-08T19:50:01.516Z,11.73
2019-03-08T19:52:47.767Z,7.47
2019-03-08T19:55:23.943Z,8.20
2019-03-08T19:58:10.414Z,9.57
2019-03-08T20:00:49.471Z,13.13
2019-03-08T20:03:19.629Z,8.43
2019-03-08T20:05:49.787Z,10.70
2019-03-08T20:08:25.680Z,9.47
2019-03-08T20:10:58.760Z,11.87
2019-03-08T20:13:34.521Z,8.97
2019-03-08T20:16:07.464Z,11.63
2019-03-08T20:18:43.180Z,13.03
2019-03-08T20:21:22.162Z,12.57
2019-03-08T20:24:01.121Z,13.57
2019-03-08T20:26:36.939Z,7.60
2019-03-08T20:29:09.506Z,10.33
2019-03-08T20:31:55.981Z,8.07
2019-03-08T20:34:31.809Z,12.03
2019-03-08T20:37:07.686Z,15.97
2019-03-08T20:39:39.776Z,7.93
2019-03-08T20:42:10.057Z,12.60
2019-03-08T20:44:46.108Z,13.03
2019-03-08T20:47:19.100Z,12.97
2019-03-08T20:49:47.529Z,15.20
2019-03-08T20:52:16.200Z,17.23
2019-03-08T20:54:44.618Z,14.07
2019-03-08T20:57:13.124Z,9.87
2019-03-08T20:59:41.538Z,8.93
2019-03-08T21:02:10.047Z,15.90
2019-03-08T21:04:38.566Z,10.17
2019-03-08T21:07:07.127Z,10.70
2019-03-08T21:09:35.626Z,12.93
2019-03-08T21:12:04.107Z,15.20
2019-03-08T21:14:32.594Z,15.13
2019-03-08T21:17:01.006Z,14.17
2019-03-08T21:19:29.448Z,20.00
2019-03-08T21:21:57.926Z,11.93
2019-03-08T21:24:26.415Z,11.20
2019-03-08T21:26:54.834Z,9.50
2019-03-08T21:29:23.333Z,13.43
2019-03-08T21:31:51.838Z,11.00
2019-03-08T21:34:20.589Z,12.77
2019-03-08T21:36:49.056Z,14.77
2019-03-08T21:39:17.559Z,9.47
2019-03-08T21:41:45.960Z,14.23
2019-03-08T21:44:14.412Z,18.50
2019-03-08T21:46:42.875Z,18.50
2019-03-08T21:49:12.079Z,18.07
2019-03-08T21:51:40.546Z,10.60
2019-03-08T21:54:08.987Z,13.20
2019-03-08T21:56:37.389Z,8.70
2019-03-08T21:59:05.896Z,11.07
2019-03-08T22:01:34.475Z,12.40
2019-03-08T22:04:04.525Z,9.93
2019-03-08T22:06:32.953Z,17.40
2019-03-08T22:09:05.763Z,11.10
2019-03-08T22:11:35.975Z,12.00
2019-03-08T22:14:04.696Z,9.27
2019-03-08T22:16:33.134Z,12.73
2019-03-08T22:19:01.534Z,11.37
2019-03-08T22:21:30.062Z,9.63
2019-03-08T22:23:58.648Z,17.93
2019-03-08T22:26:27.101Z,11.40
2019-03-08T22:28:55.513Z,10.47
2019-03-08T22:31:23.937Z,19.07
2019-03-08T22:33:52.389Z,20.30
2019-03-08T22:36:20.794Z,10.43
2019-03-08T22:38:49.299Z,10.27
2019-03-08T22:41:17.889Z,9.23
2019-03-08T22:43:46.326Z,18.13
2019-03-08T22:46:14.734Z,5.77
2019-03-08T22:48:43.139Z,16.03
2019-03-08T22:51:11.565Z,9.40
2019-03-08T22:53:39.952Z,11.70
2019-03-08T22:56:08.385Z,16.70
2019-03-08T22:58:36.773Z,9.80
2019-03-08T23:01:08.910Z,11.00
2019-03-08T23:03:37.397Z,14.70
2019-03-08T23:06:06.063Z,8.10
2019-03-08T23:08:34.481Z,18.07
2019-03-08T23:11:03.038Z,15.70
2019-03-08T23:13:31.489Z,9.17
2019-03-08T23:16:00.024Z,11.10
2019-03-08T23:18:28.546Z,10.97
2019-03-08T23:20:57.803Z,10.20
2019-03-08T23:23:26.251Z,12.67
2019-03-08T23:25:54.730Z,12.90
2019-03-08T23:28:24.775Z,10.17
2019-03-08T23:31:11.283Z,14.50
2019-03-08T23:33:39.700Z,10.53
2019-03-08T23:36:08.130Z,16.90
2019-03-08T23:38:36.593Z,14.73
2019-03-08T23:41:05.148Z,9.20
2019-03-08T23:43:33.922Z,11.90
2019-03-08T23:46:02.350Z,11.40
2019-03-08T23:48:32.877Z,10.60
2019-03-08T23:51:01.308Z,16.00
2019-03-08T23:53:29.710Z,17.73
2019-03-08T23:55:58.129Z,9.10
2019-03-08T23:58:26.527Z,10.10
